createdAt,value
2023-03-30T00:00:16.940Z,3.00
2023-03-30T00:02:45.621Z,3.15
2023-03-30T00:05:14.209Z,3.65
2023-03-30T00:07:43.358Z,3.15
2023-03-30T00:10:13.171Z,3.05
2023-03-30T00:12:43.616Z,3.15
2023-03-30T00:15:15.418Z,3.30
2023-03-30T00:17:45.747Z,3.50
2023-03-30T00:20:14.920Z,4.55
2023-03-30T00:22:46.986Z,4.38
2023-03-30T00:25:16.828Z,5.03
2023-03-30T00:27:45.257Z,5.72
2023-03-30T00:30:17.070Z,5.20
2023-03-30T00:32:45.610Z,5.07
2023-03-30T00:35:14.389Z,4.95
2023-03-30T00:37:45.865Z,5.07
2023-03-30T00:40:18.178Z,5.35
2023-03-30T00:42:47.089Z,5.72
2023-03-30T00:45:29.783Z,5.60
2023-03-30T00:48:06.280Z,6.00
2023-03-30T00:50:38.182Z,5.25
2023-03-30T00:53:11.767Z,5.57
2023-03-30T00:55:41.841Z,5.35
2023-03-30T00:58:11.162Z,5.70
2023-03-30T01:00:43.429Z,6.13
2023-03-30T01:03:23.073Z,5.15
2023-03-30T01:05:53.194Z,6.15
2023-03-30T01:08:24.331Z,5.90
2023-03-30T01:10:52.782Z,6.22
2023-03-30T01:13:21.577Z,5.50
2023-03-30T01:16:06.219Z,5.90
2023-03-30T01:18:47.786Z,5.60
2023-03-30T01:22:00.086Z,6.13
2023-03-30T01:25:07.267Z,6.63
2023-03-30T01:28:06.735Z,7.45
2023-03-30T01:30:55.053Z,8.10
2023-03-30T01:33:50.767Z,9.88
2023-03-30T01:37:15.948Z,9.55
2023-03-30T01:39:56.162Z,9.45
2023-03-30T01:42:29.036Z,10.02
2023-03-30T01:45:06.021Z,11.13
2023-03-30T01:47:39.425Z,13.10
2023-03-30T01:50:13.014Z,14.07
2023-03-30T01:52:47.147Z,15.65
2023-03-30T01:55:22.286Z,15.73
2023-03-30T01:57:56.525Z,16.38
2023-03-30T02:00:27.776Z,17.30
2023-03-30T02:03:01.479Z,18.33
2023-03-30T02:05:32.039Z,19.08
2023-03-30T02:08:04.658Z,20.92
2023-03-30T02:10:37.205Z,22.33
2023-03-30T02:13:07.521Z,24.23
2023-03-30T02:15:38.965Z,25.20
2023-03-30T02:18:07.224Z,26.83
2023-03-30T02:20:36.653Z,29.27
2023-03-30T02:23:06.740Z,29.75
2023-03-30T02:25:39.113Z,31.00
2023-03-30T02:28:08.853Z,31.95
2023-03-30T02:30:42.072Z,32.50
2023-03-30T02:33:19.725Z,33.53
2023-03-30T02:35:59.084Z,32.95
2023-03-30T02:38:59.726Z,33.58
2023-03-30T02:42:06.860Z,34.00
2023-03-30T02:44:45.880Z,32.42
2023-03-30T02:47:20.226Z,33.55
2023-03-30T02:49:58.645Z,33.40
2023-03-30T02:52:43.027Z,34.00
2023-03-30T02:55:19.960Z,33.90
2023-03-30T02:57:58.188Z,34.03
2023-03-30T03:00:31.213Z,34.00
2023-03-30T03:03:05.953Z,33.83
2023-03-30T03:05:35.692Z,33.25
2023-03-30T03:08:03.902Z,32.58
2023-03-30T03:10:36.447Z,33.25
2023-03-30T03:13:06.185Z,32.58
2023-03-30T03:15:38.025Z,32.83
2023-03-30T03:18:06.488Z,31.58
2023-03-30T03:20:34.721Z,32.20
2023-03-30T03:23:02.848Z,32.88
2023-03-30T03:25:33.756Z,33.33
2023-03-30T03:28:09.263Z,32.90
2023-03-30T03:30:37.633Z,33.13
2023-03-30T03:33:06.008Z,33.25
2023-03-30T03:35:34.630Z,34.00
2023-03-30T03:38:02.983Z,34.83
2023-03-30T03:40:31.465Z,35.22
2023-03-30T03:42:59.568Z,34.80
2023-03-30T03:45:29.726Z,34.97
2023-03-30T03:47:59.124Z,35.45
2023-03-30T03:50:27.584Z,35.88
2023-03-30T03:52:56.160Z,35.85
2023-03-30T03:55:25.012Z,35.17
2023-03-30T03:57:54.977Z,36.03
2023-03-30T04:00:23.577Z,35.80
2023-03-30T04:02:53.703Z,35.50
2023-03-30T04:05:22.044Z,34.90
2023-03-30T04:07:50.204Z,35.05
2023-03-30T04:10:18.254Z,35.17
2023-03-30T04:12:46.634Z,34.70
2023-03-30T04:15:15.050Z,34.63
2023-03-30T04:17:47.302Z,35.63
2023-03-30T04:20:19.517Z,34.92
2023-03-30T04:22:50.137Z,33.88
2023-03-30T04:25:19.605Z,33.55
2023-03-30T04:27:50.681Z,33.17
2023-03-30T04:30:20.131Z,33.70
2023-03-30T04:32:54.973Z,32.47
2023-03-30T04:35:24.416Z,32.67
2023-03-30T04:37:52.594Z,31.52
2023-03-30T04:40:20.647Z,32.00
2023-03-30T04:42:49.942Z,31.23
2023-03-30T04:45:19.439Z,30.70
2023-03-30T04:47:47.812Z,32.25
2023-03-30T04:50:16.578Z,32.80
2023-03-30T04:52:46.334Z,31.58
2023-03-30T04:55:14.461Z,32.25
2023-03-30T04:57:45.157Z,31.85
2023-03-30T05:00:14.447Z,31.20
2023-03-30T05:02:42.650Z,31.75
2023-03-30T05:05:11.015Z,32.15
2023-03-30T05:07:39.321Z,31.98
2023-03-30T05:10:09.678Z,31.98
2023-03-30T05:12:37.986Z,31.75
2023-03-30T05:15:07.249Z,31.20
2023-03-30T05:17:35.528Z,31.55
2023-03-30T05:20:08.510Z,31.40
2023-03-30T05:22:37.490Z,32.33
2023-03-30T05:25:06.190Z,32.70
2023-03-30T05:27:36.019Z,31.90
2023-03-30T05:30:04.760Z,31.90
2023-03-30T05:32:33.137Z,30.83
2023-03-30T05:35:01.528Z,31.85
2023-03-30T05:37:29.704Z,31.88
2023-03-30T05:39:58.209Z,32.40
2023-03-30T05:42:26.615Z,31.33
2023-03-30T05:44:56.823Z,32.00
2023-03-30T05:47:25.171Z,31.77
2023-03-30T05:49:54.962Z,32.33
2023-03-30T05:52:24.040Z,31.48
2023-03-30T05:54:52.159Z,31.67
2023-03-30T05:57:21.152Z,32.10
2023-03-30T05:59:49.537Z,31.83
2023-03-30T06:02:19.957Z,30.80
2023-03-30T06:04:48.517Z,30.85
2023-03-30T06:07:17.959Z,31.52
2023-03-30T06:09:46.148Z,31.50
2023-03-30T06:12:14.640Z,31.10
2023-03-30T06:14:44.890Z,31.15
2023-03-30T06:17:16.130Z,30.45
2023-03-30T06:19:45.719Z,31.50
2023-03-30T06:22:13.952Z,30.83
2023-03-30T06:24:42.016Z,31.25
2023-03-30T06:27:10.148Z,30.40
2023-03-30T06:29:38.436Z,30.65
2023-03-30T06:32:07.219Z,31.23
2023-03-30T06:34:37.575Z,30.77
2023-03-30T06:37:08.811Z,31.88
2023-03-30T06:39:37.897Z,31.50
2023-03-30T06:42:06.625Z,32.40
2023-03-30T06:44:35.247Z,31.25
2023-03-30T06:47:03.469Z,32.10
2023-03-30T06:49:31.719Z,31.95
2023-03-30T06:52:03.254Z,32.00
2023-03-30T06:54:35.730Z,30.98
2023-03-30T06:57:06.570Z,31.52
2023-03-30T06:59:35.114Z,32.42
2023-03-30T07:02:03.719Z,32.92
2023-03-30T07:04:32.043Z,32.85
2023-03-30T07:07:00.366Z,31.80
2023-03-30T07:09:28.581Z,33.28
2023-03-30T07:11:58.145Z,32.33
2023-03-30T07:14:26.678Z,32.20
2023-03-30T07:16:55.033Z,32.03
2023-03-30T07:19:24.439Z,32.15
2023-03-30T07:21:52.644Z,31.83
2023-03-30T07:24:20.786Z,33.20
2023-03-30T07:26:48.932Z,32.38
2023-03-30T07:29:18.399Z,31.80
2023-03-30T07:31:46.741Z,33.80
2023-03-30T07:34:15.258Z,32.30
2023-03-30T07:36:43.448Z,32.25
2023-03-30T07:39:11.588Z,31.38
2023-03-30T07:41:40.113Z,31.58
2023-03-30T07:44:11.390Z,32.33
2023-03-30T07:46:41.342Z,32.50
2023-03-30T07:49:09.660Z,33.03
2023-03-30T07:51:37.893Z,32.20
2023-03-30T07:54:06.890Z,33.00
2023-03-30T07:56:38.736Z,32.78
2023-03-30T07:59:08.318Z,31.77
2023-03-30T08:01:40.782Z,31.88
2023-03-30T08:04:11.392Z,32.25
2023-03-30T08:06:39.867Z,33.03
2023-03-30T08:09:08.671Z,33.45
2023-03-30T08:11:36.758Z,33.05
2023-03-30T08:14:05.370Z,33.03
2023-03-30T08:16:33.813Z,33.03
2023-03-30T08:19:05.278Z,33.10
2023-03-30T08:21:34.992Z,33.53
2023-03-30T08:24:03.266Z,33.08
2023-03-30T08:26:31.954Z,34.05
2023-03-30T08:29:00.185Z,33.22
2023-03-30T08:31:28.298Z,34.10
2023-03-30T08:33:56.705Z,34.28
2023-03-30T08:36:24.926Z,34.80
2023-03-30T08:38:55.989Z,34.78
2023-03-30T08:41:44.155Z,34.72
2023-03-30T08:44:16.501Z,33.60
2023-03-30T08:46:47.546Z,34.38
2023-03-30T08:49:20.491Z,33.90
2023-03-30T08:51:51.559Z,35.55
2023-03-30T08:54:25.949Z,33.45
2023-03-30T08:57:07.004Z,34.03
2023-03-30T08:59:43.077Z,33.70
2023-03-30T09:02:18.241Z,35.00
2023-03-30T09:05:02.103Z,34.33
2023-03-30T09:07:33.164Z,33.92
2023-03-30T09:10:02.967Z,35.03
2023-03-30T09:12:40.343Z,34.33
2023-03-30T09:15:14.649Z,34.45
2023-03-30T09:17:47.384Z,35.95
2023-03-30T09:20:20.759Z,33.05
2023-03-30T09:22:50.063Z,36.42
2023-03-30T09:25:26.301Z,34.85
2023-03-30T09:28:06.816Z,37.45
2023-03-30T09:30:41.208Z,35.97
2023-03-30T09:33:26.051Z,36.22
2023-03-30T09:36:06.949Z,34.33
2023-03-30T09:38:38.339Z,35.15
2023-03-30T09:41:22.077Z,36.05
2023-03-30T09:43:52.387Z,36.92
2023-03-30T09:46:20.585Z,37.60
2023-03-30T09:48:51.419Z,37.60
2023-03-30T09:51:25.340Z,37.50
2023-03-30T09:53:59.881Z,37.53
2023-03-30T09:56:40.921Z,38.60
2023-03-30T09:59:22.299Z,38.08
2023-03-30T10:01:50.586Z,37.35
2023-03-30T10:04:19.504Z,38.63
2023-03-30T10:06:50.169Z,37.65
2023-03-30T10:09:22.706Z,37.90
2023-03-30T10:11:54.744Z,39.00
2023-03-30T10:14:34.788Z,38.80
2023-03-30T10:17:04.795Z,39.80
2023-03-30T10:19:38.581Z,39.72
2023-03-30T10:22:17.117Z,40.20
2023-03-30T10:24:52.286Z,41.42
2023-03-30T10:27:29.224Z,41.78
2023-03-30T10:29:57.442Z,41.08
2023-03-30T10:32:31.294Z,40.85
2023-03-30T10:35:04.579Z,40.67
2023-03-30T10:37:37.075Z,39.05
2023-03-30T10:40:15.931Z,39.60
2023-03-30T10:42:47.434Z,40.03
2023-03-30T10:45:20.038Z,40.45
2023-03-30T10:48:04.659Z,39.30
2023-03-30T10:50:41.915Z,39.85
2023-03-30T10:53:25.157Z,39.92
2023-03-30T10:56:04.316Z,39.50
2023-03-30T10:58:55.879Z,40.58
2023-03-30T11:01:31.059Z,38.75
2023-03-30T11:04:16.211Z,39.35
2023-03-30T11:06:57.646Z,40.13
2023-03-30T11:09:30.497Z,39.47
2023-03-30T11:12:02.867Z,40.20
2023-03-30T11:14:45.849Z,42.08
2023-03-30T11:17:22.825Z,40.35
2023-03-30T11:19:56.980Z,40.33
2023-03-30T11:22:37.054Z,41.15
2023-03-30T11:28:08.963Z,42.17
2023-03-30T11:30:50.224Z,41.78
2023-03-30T11:33:27.292Z,40.47
2023-03-30T11:46:43.959Z,38.58
2023-03-30T11:49:35.139Z,38.30
2023-03-30T11:52:13.593Z,38.17
2023-03-30T11:55:09.666Z,38.20
2023-03-30T11:57:46.289Z,36.63
2023-03-30T12:00:27.684Z,37.17
2023-03-30T12:03:09.973Z,36.83
2023-03-30T12:05:41.570Z,35.72
2023-03-30T12:08:31.616Z,36.53
2023-03-30T12:11:05.687Z,35.88
2023-03-30T12:13:44.864Z,35.38
2023-03-30T12:16:28.214Z,34.53
2023-03-30T12:36:43.266Z,34.60
2023-03-30T12:39:19.408Z,35.08
2023-03-30T12:41:58.337Z,37.28
2023-03-30T12:44:52.346Z,34.60
2023-03-30T12:47:43.531Z,35.45
2023-03-30T12:50:24.980Z,35.30
2023-03-30T12:53:12.206Z,36.42
2023-03-30T12:55:47.461Z,36.08
2023-03-30T12:58:36.004Z,36.25
2023-03-30T13:01:16.946Z,36.08
2023-03-30T13:03:54.842Z,36.25
2023-03-30T13:06:27.555Z,36.45
2023-03-30T13:09:04.947Z,36.63
2023-03-30T13:11:46.219Z,36.95
2023-03-30T13:14:27.383Z,37.10
2023-03-30T13:17:17.823Z,36.60
2023-03-30T13:19:52.835Z,37.60
2023-03-30T13:22:31.645Z,37.00
2023-03-30T13:25:32.095Z,37.30
2023-03-30T13:28:01.599Z,38.13
2023-03-30T13:30:31.098Z,37.25
2023-03-30T13:33:11.775Z,38.33
2023-03-30T13:35:54.982Z,39.30
2023-03-30T13:39:00.943Z,37.00
2023-03-30T13:41:51.925Z,37.38
2023-03-30T13:44:35.200Z,38.28
2023-03-30T13:47:19.382Z,38.92
2023-03-30T13:49:56.192Z,39.00
2023-03-30T13:52:32.156Z,37.92
2023-03-30T13:55:03.187Z,38.28
2023-03-30T13:57:38.780Z,39.10
2023-03-30T14:00:11.932Z,38.95
2023-03-30T14:02:42.113Z,38.53
2023-03-30T14:05:15.433Z,37.60
2023-03-30T14:07:47.521Z,38.97
2023-03-30T14:10:18.068Z,39.45
2023-03-30T14:12:54.714Z,39.58
2023-03-30T14:15:25.937Z,40.80
2023-03-30T14:17:56.934Z,39.30
2023-03-30T14:20:40.857Z,39.97
2023-03-30T14:23:15.976Z,39.42
2023-03-30T14:25:44.298Z,37.90
2023-03-30T14:28:17.306Z,38.92
2023-03-30T14:30:53.491Z,38.85
2023-03-30T14:33:22.489Z,38.03
2023-03-30T14:35:54.433Z,38.85
2023-03-30T14:38:25.802Z,39.92
2023-03-30T14:40:58.462Z,39.05
2023-03-30T14:43:31.712Z,38.25
2023-03-30T14:46:04.382Z,38.90
2023-03-30T14:48:34.934Z,39.28
2023-03-30T14:51:03.897Z,38.67
2023-03-30T14:53:32.541Z,38.03
2023-03-30T14:56:02.613Z,38.53
2023-03-30T14:58:33.817Z,39.67
2023-03-30T15:01:09.182Z,39.80
2023-03-30T15:03:39.774Z,37.90
2023-03-30T15:06:09.609Z,37.75
2023-03-30T15:08:40.591Z,38.05
2023-03-30T15:11:11.152Z,38.03
2023-03-30T15:13:49.823Z,38.38
2023-03-30T15:16:20.944Z,37.17
2023-03-30T15:18:51.405Z,37.47
2023-03-30T15:21:22.868Z,37.90
2023-03-30T15:23:52.026Z,38.00
2023-03-30T15:26:21.365Z,35.88
2023-03-30T15:28:54.390Z,37.53
2023-03-30T15:31:23.046Z,37.42
2023-03-30T15:33:57.477Z,36.92
2023-03-30T15:36:29.286Z,37.28
2023-03-30T15:38:59.725Z,37.40
2023-03-30T15:41:46.529Z,35.95
2023-03-30T15:44:21.665Z,34.72
2023-03-30T15:46:57.437Z,35.92
2023-03-30T15:49:31.853Z,34.63
2023-03-30T15:52:02.907Z,35.25
2023-03-30T15:54:38.921Z,34.55
2023-03-30T15:57:15.139Z,35.25
2023-03-30T15:59:48.010Z,35.55
2023-03-30T16:02:18.597Z,35.05
2023-03-30T16:04:46.756Z,34.85
2023-03-30T16:07:18.748Z,31.75
2023-03-30T16:09:47.443Z,32.50
2023-03-30T16:12:18.463Z,30.02
2023-03-30T16:14:49.169Z,29.50
2023-03-30T16:17:18.438Z,28.83
2023-03-30T16:19:47.291Z,29.63
2023-03-30T16:22:18.824Z,29.73
2023-03-30T16:24:48.320Z,30.30
2023-03-30T16:27:16.522Z,30.92
2023-03-30T16:29:45.198Z,30.85
2023-03-30T16:32:14.809Z,30.85
2023-03-30T16:34:44.008Z,29.83
2023-03-30T16:37:12.525Z,30.50
2023-03-30T16:39:40.933Z,30.55
2023-03-30T16:42:09.260Z,31.63
2023-03-30T16:44:37.832Z,31.63
2023-03-30T16:47:07.382Z,30.27
2023-03-30T16:49:37.317Z,29.85
2023-03-30T16:52:06.207Z,29.55
2023-03-30T16:54:34.427Z,29.45
2023-03-30T16:57:02.812Z,31.05
2023-03-30T16:59:33.336Z,31.27
2023-03-30T17:02:02.591Z,30.63
2023-03-30T17:04:33.067Z,30.85
2023-03-30T17:07:02.735Z,30.25
2023-03-30T17:09:30.904Z,31.17
2023-03-30T17:12:00.736Z,32.72
2023-03-30T17:14:30.145Z,32.70
2023-03-30T17:17:00.450Z,34.58
2023-03-30T17:19:29.241Z,33.78
2023-03-30T17:22:00.808Z,34.42
2023-03-30T17:24:30.473Z,34.35
2023-03-30T17:27:01.343Z,35.15
2023-03-30T17:29:29.592Z,34.80
2023-03-30T17:31:57.650Z,35.45
2023-03-30T17:34:25.853Z,35.75
2023-03-30T17:36:54.112Z,35.72
2023-03-30T17:39:24.392Z,35.20
2023-03-30T17:41:53.996Z,35.40
2023-03-30T17:44:22.394Z,35.90
2023-03-30T17:46:51.377Z,36.05
2023-03-30T17:49:19.636Z,35.50
2023-03-30T17:51:48.044Z,36.08
2023-03-30T17:54:16.557Z,35.10
2023-03-30T17:56:44.757Z,35.58
2023-03-30T17:59:24.169Z,36.15
2023-03-30T18:07:20.840Z,36.30
2023-03-30T18:09:49.996Z,35.92
2023-03-30T18:12:21.188Z,36.53
2023-03-30T18:14:51.055Z,35.13
2023-03-30T18:17:19.642Z,35.78
2023-03-30T18:19:48.088Z,34.85
2023-03-30T18:22:19.471Z,34.83
2023-03-30T18:24:47.887Z,33.97
2023-03-30T18:27:16.620Z,35.08
2023-03-30T18:29:44.758Z,35.17
2023-03-30T18:32:14.670Z,34.50
2023-03-30T18:34:43.968Z,34.67
2023-03-30T18:37:12.324Z,34.83
2023-03-30T18:39:41.367Z,34.22
2023-03-30T18:42:09.603Z,34.58
2023-03-30T18:44:38.029Z,35.47
2023-03-30T18:47:06.306Z,34.78
2023-03-30T18:49:37.251Z,34.75
2023-03-30T18:52:05.258Z,34.60
2023-03-30T18:54:33.596Z,33.58
2023-03-30T18:57:02.225Z,34.72
2023-03-30T18:59:30.353Z,34.28
2023-03-30T19:01:58.580Z,34.75
2023-03-30T19:04:26.935Z,34.88
2023-03-30T19:06:59.632Z,34.97
2023-03-30T19:09:42.233Z,34.00
2023-03-30T19:12:18.603Z,34.85
2023-03-30T19:14:46.817Z,34.15
2023-03-30T19:17:15.956Z,34.40
2023-03-30T19:19:44.463Z,34.90
2023-03-30T19:22:14.582Z,33.90
2023-03-30T19:24:42.608Z,32.88
2023-03-30T19:27:14.209Z,34.13
2023-03-30T19:29:42.660Z,34.08
2023-03-30T19:32:11.874Z,33.03
2023-03-30T19:34:48.086Z,32.28
2023-03-30T19:37:21.360Z,33.17
2023-03-30T19:39:51.961Z,33.15
2023-03-30T19:42:21.873Z,32.92
2023-03-30T19:44:50.324Z,33.97
2023-03-30T19:47:18.694Z,34.05
2023-03-30T19:49:46.917Z,33.13
2023-03-30T19:52:15.567Z,32.35
2023-03-30T19:54:46.166Z,33.60
2023-03-30T19:57:14.839Z,32.78
2023-03-30T19:59:46.043Z,33.65
2023-03-30T20:02:15.793Z,33.58
2023-03-30T20:04:44.906Z,33.80
2023-03-30T20:07:16.390Z,33.20
2023-03-30T20:09:46.223Z,33.13
2023-03-30T20:12:14.681Z,32.25
2023-03-30T20:14:44.142Z,33.33
2023-03-30T20:17:12.316Z,32.78
2023-03-30T20:19:42.817Z,33.75
2023-03-30T20:22:16.203Z,32.92
2023-03-30T20:24:46.406Z,33.40
2023-03-30T20:27:15.065Z,33.30
2023-03-30T20:29:46.107Z,33.92
2023-03-30T20:32:16.604Z,33.55
2023-03-30T20:34:49.150Z,33.42
2023-03-30T20:37:21.108Z,33.10
2023-03-30T20:39:53.694Z,33.13
2023-03-30T20:42:28.721Z,33.75
2023-03-30T20:44:58.008Z,33.60
2023-03-30T20:47:33.144Z,34.50
2023-03-30T20:52:52.969Z,33.75
2023-03-30T20:55:22.560Z,33.75
2023-03-30T20:57:51.105Z,33.95
2023-03-30T21:00:20.541Z,33.28
2023-03-30T21:02:48.956Z,34.15
2023-03-30T21:05:17.249Z,33.63
2023-03-30T21:07:47.157Z,32.30
2023-03-30T21:10:16.624Z,33.50
2023-03-30T21:12:46.639Z,32.45
2023-03-30T21:15:15.173Z,32.72
2023-03-30T21:17:43.763Z,32.75
2023-03-30T21:20:14.267Z,33.67
2023-03-30T21:22:42.699Z,33.47
2023-03-30T21:25:13.005Z,32.70
2023-03-30T21:27:41.561Z,33.60
2023-03-30T21:30:14.516Z,33.53
2023-03-30T21:32:42.873Z,34.22
2023-03-30T21:35:11.402Z,32.85
2023-03-30T21:37:40.083Z,33.58
2023-03-30T21:40:09.830Z,32.42
2023-03-30T21:42:38.553Z,34.20
2023-03-30T21:45:08.413Z,34.03
2023-03-30T21:47:41.720Z,33.13
2023-03-30T21:50:13.527Z,33.53
2023-03-30T21:52:45.131Z,33.53
2023-03-30T21:55:22.859Z,33.45
2023-03-30T21:57:53.920Z,32.58
2023-03-30T22:00:22.512Z,32.65
2023-03-30T22:02:53.052Z,33.58
2023-03-30T22:05:21.732Z,33.22
2023-03-30T22:07:50.459Z,33.67
2023-03-30T22:10:18.904Z,32.60
2023-03-30T22:12:49.587Z,33.38
2023-03-30T22:15:18.586Z,33.33
2023-03-30T22:17:46.964Z,33.83
2023-03-30T22:20:18.829Z,33.08
2023-03-30T22:22:47.475Z,33.38
2023-03-30T22:25:19.411Z,33.92
2023-03-30T22:27:48.517Z,32.70
2023-03-30T22:30:18.900Z,33.13
2023-03-30T22:32:49.124Z,33.08
2023-03-30T22:35:20.422Z,33.65
2023-03-30T22:37:48.966Z,33.47
2023-03-30T22:40:17.813Z,33.75
2023-03-30T22:42:47.039Z,33.00
2023-03-30T22:45:16.324Z,33.78
2023-03-30T22:47:45.305Z,32.58
2023-03-30T22:50:14.362Z,32.63
2023-03-30T23:37:58.973Z,32.35
2023-03-30T23:40:27.244Z,32.63
2023-03-30T23:42:55.787Z,32.85
2023-03-30T23:45:23.942Z,33.00
2023-03-30T23:47:52.274Z,32.33
2023-03-30T23:50:20.436Z,32.72
2023-03-30T23:52:48.361Z,32.88
2023-03-30T23:55:18.465Z,32.53
2023-03-30T23:57:46.831Z,32.35
